Time;durP1;ratioP1;P1;durP2;ratioP2;P2;SDS_P1;SDS_P2;PMS_P1;PMS_P2;Temp;Humidity;BMP_temperature;BMP_pressure;BME280_temperature;BME280_humidity;BME280_pressure;Samples;Min_cycle;Max_cycle;Signal;HPM_P1;HPM_P2
2022/05/03 00:00:09;;;;;;;4.30;2.80;;;;;;;;;;5016641;28;20026;-81
2022/05/03 00:02:55;;;;;;;3.47;2.72;;;;;;;;;;5022057;28;20051;-81
2022/05/03 00:05:31;;;;;;;5.80;2.65;;;;;;;;;;5018399;28;20044;-81
2022/05/03 00:08:20;;;;;;;3.58;2.47;;;;;;;;;;4999314;28;20026;-81
2022/05/03 00:11:04;;;;;;;4.07;3.10;;;;;;;;;;4998723;28;20165;-81
2022/05/03 00:13:37;;;;;;;4.22;3.08;;;;;;;;;;5019467;28;20049;-81
2022/05/03 00:16:02;;;;;;;5.03;3.00;;;;;;;;;;5018221;28;20049;-81
2022/05/03 00:18:28;;;;;;;6.00;3.22;;;;;;;;;;5018415;28;20426;-82
2022/05/03 00:20:53;;;;;;;4.95;2.90;;;;;;;;;;4985845;28;20462;-81
2022/05/03 00:23:18;;;;;;;4.85;2.90;;;;;;;;;;5009693;28;20041;-82
2022/05/03 00:25:44;;;;;;;5.70;3.08;;;;;;;;;;5036266;28;20022;-81
2022/05/03 00:28:10;;;;;;;8.02;3.35;;;;;;;;;;5018040;28;20057;-82
2022/05/03 00:30:36;;;;;;;7.65;3.30;;;;;;;;;;5001964;28;20021;-82
2022/05/03 00:33:04;;;;;;;5.63;3.05;;;;;;;;;;5035545;28;20029;-81
2022/05/03 00:35:30;;;;;;;3.53;2.85;;;;;;;;;;5034278;28;20469;-82
2022/05/03 00:37:55;;;;;;;5.63;3.15;;;;;;;;;;5035623;28;20022;-81
2022/05/03 00:40:21;;;;;;;5.60;3.33;;;;;;;;;;5035438;28;20048;-82
2022/05/03 00:42:55;;;;;;;8.70;3.33;;;;;;;;;;5004458;28;20052;-82
2022/05/03 00:45:30;;;;;;;5.13;3.60;;;;;;;;;;5023466;28;20021;-81
2022/05/03 00:48:09;;;;;;;5.07;3.72;;;;;;;;;;5017475;28;20030;-83
2022/05/03 00:51:08;;;;;;;5.03;3.50;;;;;;;;;;5034999;28;20442;-83
2022/05/03 00:53:37;;;;;;;5.20;2.80;;;;;;;;;;5035049;28;20372;-81
2022/05/03 00:56:24;;;;;;;4.70;3.17;;;;;;;;;;5017600;28;20451;-81
2022/05/03 00:59:11;;;;;;;6.53;3.28;;;;;;;;;;5017645;28;20033;-82
2022/05/03 01:01:46;;;;;;;5.18;3.50;;;;;;;;;;5002350;28;20029;-81
2022/05/03 01:04:32;;;;;;;6.57;3.15;;;;;;;;;;5045579;28;20061;-81
2022/05/03 01:07:32;;;;;;;4.43;3.13;;;;;;;;;;5018525;28;20087;-82
2022/05/03 01:10:05;;;;;;;4.72;2.63;;;;;;;;;;5020840;28;20453;-82
2022/05/03 01:13:00;;;;;;;5.13;3.25;;;;;;;;;;5000702;28;20033;-83
2022/05/03 01:15:29;;;;;;;6.35;3.10;;;;;;;;;;4964318;28;20038;-82
2022/05/03 01:18:21;;;;;;;5.43;3.10;;;;;;;;;;5001540;28;20049;-80
2022/05/03 01:21:07;;;;;;;7.55;2.92;;;;;;;;;;5018009;28;20387;-82
2022/05/03 01:23:41;;;;;;;4.93;3.00;;;;;;;;;;5037330;28;20080;-82
2022/05/03 01:26:46;;;;;;;5.00;2.75;;;;;;;;;;5023329;28;20109;-83
2022/05/03 01:29:19;;;;;;;4.40;3.13;;;;;;;;;;4993326;28;20544;-82
2022/05/03 01:31:45;;;;;;;9.68;3.30;;;;;;;;;;5034505;28;20029;-82
2022/05/03 01:34:12;;;;;;;6.32;3.35;;;;;;;;;;5016840;28;20033;-81
2022/05/03 01:36:59;;;;;;;4.43;2.70;;;;;;;;;;5001126;28;20106;-82
2022/05/03 01:40:03;;;;;;;4.68;2.97;;;;;;;;;;5036948;28;20026;-82
2022/05/03 01:42:54;;;;;;;7.78;3.28;;;;;;;;;;5022250;28;20037;-81
2022/05/03 01:45:31;;;;;;;6.97;3.10;;;;;;;;;;5049618;28;20079;-81
2022/05/03 01:48:17;;;;;;;4.28;3.25;;;;;;;;;;5003541;28;20119;-80
2022/05/03 01:50:49;;;;;;;4.88;3.20;;;;;;;;;;5002019;28;20034;-82
2022/05/03 01:53:21;;;;;;;9.32;3.05;;;;;;;;;;5037858;28;20673;-81
2022/05/03 01:56:09;;;;;;;4.28;2.78;;;;;;;;;;5005941;28;20013;-81
2022/05/03 01:58:36;;;;;;;4.72;3.30;;;;;;;;;;5055509;28;20089;-82
2022/05/03 02:01:08;;;;;;;4.53;3.30;;;;;;;;;;5035950;28;20375;-82
2022/05/03 02:03:33;;;;;;;4.93;3.42;;;;;;;;;;5013003;28;20543;-80
2022/05/03 02:06:08;;;;;;;4.40;3.38;;;;;;;;;;5041620;28;20065;-81
2022/05/03 02:08:44;;;;;;;5.32;3.15;;;;;;;;;;5016555;28;20032;-81
2022/05/03 02:11:32;;;;;;;5.60;3.20;;;;;;;;;;5016476;28;20022;-82
2022/05/03 02:17:04;;;;;;;5.05;3.40;;;;;;;;;;5018850;28;20087;-80
2022/05/03 02:19:54;;;;;;;5.28;3.28;;;;;;;;;;5033920;28;20522;-80
2022/05/03 02:22:53;;;;;;;6.03;3.80;;;;;;;;;;5033748;28;20038;-82
2022/05/03 02:26:03;;;;;;;5.25;3.33;;;;;;;;;;5041082;28;20037;-82
2022/05/03 02:28:39;;;;;;;7.68;3.65;;;;;;;;;;5012923;28;20132;-84
2022/05/03 02:31:07;;;;;;;6.60;3.40;;;;;;;;;;5001110;28;20032;-82
2022/05/03 02:33:36;;;;;;;5.05;3.40;;;;;;;;;;5000175;28;20079;-82
2022/05/03 02:36:01;;;;;;;8.82;3.67;;;;;;;;;;4987787;28;20527;-82
2022/05/03 02:38:37;;;;;;;6.35;3.78;;;;;;;;;;5003892;28;20026;-82
2022/05/03 02:41:03;;;;;;;7.93;3.80;;;;;;;;;;5021128;28;20030;-82
2022/05/03 02:43:30;;;;;;;6.32;3.70;;;;;;;;;;5036451;28;20093;-82
2022/05/03 02:46:05;;;;;;;7.80;3.63;;;;;;;;;;5041043;28;20022;-80
2022/05/03 02:48:38;;;;;;;6.75;3.70;;;;;;;;;;5038796;28;20116;-82
2022/05/03 02:51:04;;;;;;;9.35;3.78;;;;;;;;;;5004015;28;20034;-82
2022/05/03 02:53:30;;;;;;;9.23;4.35;;;;;;;;;;5037529;28;20137;-82
2022/05/03 02:56:01;;;;;;;6.65;4.03;;;;;;;;;;5037313;28;20041;-83
2022/05/03 02:58:53;;;;;;;5.32;3.88;;;;;;;;;;5003778;28;20110;-81
2022/05/03 03:01:49;;;;;;;4.57;3.63;;;;;;;;;;5006606;28;20527;-82
2022/05/03 03:04:42;;;;;;;4.88;3.25;;;;;;;;;;5037176;28;20030;-80
2022/05/03 03:07:07;;;;;;;5.85;3.88;;;;;;;;;;5046070;28;20475;-83
2022/05/03 03:09:36;;;;;;;6.07;4.40;;;;;;;;;;5003212;28;20029;-82
2022/05/03 03:12:21;;;;;;;7.05;4.40;;;;;;;;;;5037098;28;20026;-82
2022/05/03 03:14:47;;;;;;;6.45;3.78;;;;;;;;;;5036750;28;20049;-81
2022/05/03 03:17:22;;;;;;;7.28;4.38;;;;;;;;;;5019568;28;20136;-81
2022/05/03 03:19:59;;;;;;;8.25;4.28;;;;;;;;;;5004022;28;20418;-82
2022/05/03 03:22:29;;;;;;;6.68;4.00;;;;;;;;;;5037001;28;20022;-81
2022/05/03 03:24:55;;;;;;;7.25;4.38;;;;;;;;;;5035632;28;20030;-82
2022/05/03 03:27:21;;;;;;;7.78;4.97;;;;;;;;;;5011985;28;20584;-83
2022/05/03 03:29:46;;;;;;;7.57;4.35;;;;;;;;;;5002539;28;20033;-82
2022/05/03 03:32:12;;;;;;;6.25;4.40;;;;;;;;;;4986524;28;20060;-80
2022/05/03 03:34:37;;;;;;;6.88;4.97;;;;;;;;;;4986465;28;20036;-80
2022/05/03 03:37:05;;;;;;;11.40;4.70;;;;;;;;;;5002845;28;20382;-82
2022/05/03 03:39:34;;;;;;;10.82;4.65;;;;;;;;;;5019190;28;20045;-82
2022/05/03 03:42:06;;;;;;;8.20;4.50;;;;;;;;;;5019517;28;20390;-83
2022/05/03 03:44:32;;;;;;;7.72;4.57;;;;;;;;;;5035144;28;20439;-82
2022/05/03 03:47:02;;;;;;;7.15;4.43;;;;;;;;;;5024862;28;20116;-83
2022/05/03 03:49:30;;;;;;;12.55;4.30;;;;;;;;;;5040129;28;20100;-82
2022/05/03 03:51:59;;;;;;;9.65;4.40;;;;;;;;;;5018723;28;20034;-82
2022/05/03 03:54:25;;;;;;;8.60;4.55;;;;;;;;;;5036427;28;20107;-83
2022/05/03 03:56:50;;;;;;;7.30;4.43;;;;;;;;;;5018652;28;20443;-82
2022/05/03 03:59:16;;;;;;;8.85;5.25;;;;;;;;;;5018734;28;20033;-81
2022/05/03 04:01:41;;;;;;;6.43;4.70;;;;;;;;;;5002327;28;20434;-81
2022/05/03 04:04:08;;;;;;;6.85;4.82;;;;;;;;;;5018374;28;20022;-83
2022/05/03 04:06:34;;;;;;;6.88;4.35;;;;;;;;;;5004515;28;20057;-82
2022/05/03 04:09:00;;;;;;;7.65;4.40;;;;;;;;;;5023708;28;20028;-81
2022/05/03 04:11:25;;;;;;;6.78;4.40;;;;;;;;;;5036116;28;20025;-83
2022/05/03 04:13:52;;;;;;;7.82;4.28;;;;;;;;;;5001722;28;20042;-82
2022/05/03 04:16:17;;;;;;;6.63;4.38;;;;;;;;;;5001788;28;20041;-81
2022/05/03 04:18:45;;;;;;;7.45;4.03;;;;;;;;;;5018415;28;20483;-80
2022/05/03 04:21:21;;;;;;;7.00;4.90;;;;;;;;;;5034532;28;20037;-82
2022/05/03 04:23:46;;;;;;;6.10;3.85;;;;;;;;;;5019128;28;20029;-80
2022/05/03 04:26:12;;;;;;;6.25;4.30;;;;;;;;;;5002052;28;20112;-78
2022/05/03 04:28:41;;;;;;;7.20;4.28;;;;;;;;;;5042792;28;20573;-81
2022/05/03 04:31:06;;;;;;;7.45;4.35;;;;;;;;;;5018006;28;20497;-78
2022/05/03 04:33:32;;;;;;;6.63;4.53;;;;;;;;;;5017873;28;20029;-79
2022/05/03 04:35:57;;;;;;;6.78;4.20;;;;;;;;;;5001880;28;20036;-79
2022/05/03 04:38:23;;;;;;;8.13;4.50;;;;;;;;;;5017609;28;20083;-81
2022/05/03 04:40:48;;;;;;;7.80;4.82;;;;;;;;;;5021686;28;20101;-83
2022/05/03 04:43:17;;;;;;;8.65;4.43;;;;;;;;;;5033780;28;20017;-81
2022/05/03 04:45:43;;;;;;;6.85;3.80;;;;;;;;;;5032620;28;20021;-83
2022/05/03 04:48:12;;;;;;;5.40;3.47;;;;;;;;;;5036432;28;20041;-83
2022/05/03 04:50:37;;;;;;;11.18;4.15;;;;;;;;;;5028933;28;20045;-84
2022/05/03 04:53:03;;;;;;;8.38;4.13;;;;;;;;;;5018543;28;20026;-80
2022/05/03 04:55:34;;;;;;;6.75;5.05;;;;;;;;;;5022954;28;20368;-82
2022/05/03 04:58:00;;;;;;;9.77;3.88;;;;;;;;;;5016102;28;20029;-82
2022/05/03 05:00:36;;;;;;;6.03;4.05;;;;;;;;;;4996907;28;20531;-84
2022/05/03 05:03:41;;;;;;;8.35;4.15;;;;;;;;;;4987815;28;20029;-82
2022/05/03 05:06:24;;;;;;;6.13;3.95;;;;;;;;;;5009831;28;20101;-83
2022/05/03 05:08:50;;;;;;;6.35;4.20;;;;;;;;;;4999504;28;20042;-81
2022/05/03 05:11:50;;;;;;;8.10;4.05;;;;;;;;;;5017388;28;20037;-82
2022/05/03 05:14:20;;;;;;;7.03;4.28;;;;;;;;;;5014263;28;20045;-84
2022/05/03 05:16:48;;;;;;;12.70;3.95;;;;;;;;;;5008214;28;20088;-81
2022/05/03 05:19:32;;;;;;;5.47;4.18;;;;;;;;;;5020909;28;20040;-80
2022/05/03 05:21:59;;;;;;;5.32;3.85;;;;;;;;;;5000474;28;20029;-80
2022/05/03 05:24:24;;;;;;;9.70;4.10;;;;;;;;;;4983374;28;20029;-82
2022/05/03 05:26:50;;;;;;;9.07;4.20;;;;;;;;;;5025431;28;20034;-80
2022/05/03 05:29:15;;;;;;;9.80;4.45;;;;;;;;;;5015439;28;20061;-79
2022/05/03 05:31:41;;;;;;;7.28;3.88;;;;;;;;;;5033284;28;20450;-79
2022/05/03 05:34:07;;;;;;;8.32;4.10;;;;;;;;;;4990641;28;20033;-81
2022/05/03 05:36:42;;;;;;;6.70;4.05;;;;;;;;;;5020358;28;20029;-80
2022/05/03 05:39:07;;;;;;;6.10;4.47;;;;;;;;;;5017312;28;20032;-77
2022/05/03 05:41:33;;;;;;;7.35;4.25;;;;;;;;;;5013345;28;20430;-80
2022/05/03 05:43:59;;;;;;;6.55;4.18;;;;;;;;;;4995371;28;20100;-81
2022/05/03 05:46:28;;;;;;;5.53;3.60;;;;;;;;;;5007270;28;20041;-79
2022/05/03 05:51:31;;;;;;;10.30;3.67;;;;;;;;;;5076760;28;20053;-82
2022/05/03 05:57:28;;;;;;;7.72;4.07;;;;;;;;;;5077813;22;20067;-83
2022/05/03 05:59:54;;;;;;;7.70;4.35;;;;;;;;;;5026703;28;20071;-79
2022/05/03 06:02:29;;;;;;;6.95;3.78;;;;;;;;;;5036415;28;20040;-84
2022/05/03 06:04:55;;;;;;;5.57;3.80;;;;;;;;;;5050748;28;20029;-79
2022/05/03 06:10:15;;;;;;;10.38;4.30;;;;;;;;;;5057643;28;20028;-81
2022/05/03 06:12:41;;;;;;;5.80;4.28;;;;;;;;;;5065506;28;20389;-84
2022/05/03 06:15:07;;;;;;;9.77;6.47;;;;;;;;;;5062018;28;20052;-79
2022/05/03 06:17:32;;;;;;;10.70;6.55;;;;;;;;;;5074360;28;20524;-76
2022/05/03 06:19:58;;;;;;;10.82;6.82;;;;;;;;;;5053228;28;20136;-78
2022/05/03 06:22:25;;;;;;;9.55;5.40;;;;;;;;;;5072698;28;20031;-79
2022/05/03 06:25:15;;;;;;;16.70;8.30;;;;;;;;;;5078567;28;20025;-81
2022/05/03 06:27:41;;;;;;;9.48;5.03;;;;;;;;;;5051929;28;20463;-79
2022/05/03 06:30:07;;;;;;;14.02;7.75;;;;;;;;;;5068916;28;20123;-83
2022/05/03 06:32:33;;;;;;;9.18;5.25;;;;;;;;;;5047847;28;20077;-86
2022/05/03 06:34:59;;;;;;;9.50;4.85;;;;;;;;;;5060387;28;20029;-82
2022/05/03 06:37:27;;;;;;;7.43;5.00;;;;;;;;;;5044271;28;20048;-82
2022/05/03 06:39:54;;;;;;;7.95;5.32;;;;;;;;;;5082173;28;20140;-84
2022/05/03 06:42:37;;;;;;;15.40;6.45;;;;;;;;;;5060573;28;20465;-77
2022/05/03 06:45:06;;;;;;;6.68;3.78;;;;;;;;;;5075800;28;20044;-82
2022/05/03 06:47:34;;;;;;;9.83;4.03;;;;;;;;;;5059251;28;20032;-81
2022/05/03 06:50:03;;;;;;;8.27;3.92;;;;;;;;;;5061320;28;20277;-79
2022/05/03 06:52:31;;;;;;;10.18;4.80;;;;;;;;;;5072692;28;20024;-80
2022/05/03 06:54:56;;;;;;;17.55;8.50;;;;;;;;;;5036710;28;20058;-77
2022/05/03 06:57:23;;;;;;;6.75;4.10;;;;;;;;;;5077405;28;20046;-80
2022/05/03 06:59:49;;;;;;;5.85;3.88;;;;;;;;;;5036818;28;20041;-81
2022/05/03 07:02:14;;;;;;;7.88;4.53;;;;;;;;;;5074430;28;20074;-83
2022/05/03 07:04:46;;;;;;;8.63;4.40;;;;;;;;;;5068971;28;20016;-82
2022/05/03 07:07:13;;;;;;;6.72;4.65;;;;;;;;;;5078263;28;20412;-84
2022/05/03 07:09:43;;;;;;;15.90;7.05;;;;;;;;;;5070309;28;20334;-85
2022/05/03 07:12:09;;;;;;;11.93;5.80;;;;;;;;;;5079902;28;20029;-86
2022/05/03 07:14:35;;;;;;;6.63;3.67;;;;;;;;;;5062961;28;20282;-88
2022/05/03 07:17:00;;;;;;;9.13;4.50;;;;;;;;;;5054699;28;20032;-82
2022/05/03 07:22:52;;;;;;;7.20;3.92;;;;;;;;;;5068538;28;20089;-86
2022/05/03 07:24:58;;;;;;;5.43;3.25;;;;;;;;;;5064651;28;20045;-82
2022/05/03 07:27:24;;;;;;;8.50;3.50;;;;;;;;;;5021039;28;20055;-83
2022/05/03 07:29:59;;;;;;;7.70;3.55;;;;;;;;;;5021524;28;20033;-84
2022/05/03 07:32:27;;;;;;;7.43;3.55;;;;;;;;;;5035816;28;20104;-85
2022/05/03 07:34:57;;;;;;;5.20;3.30;;;;;;;;;;5066796;28;20342;-83
2022/05/03 07:37:39;;;;;;;;;;;;;;;;;;;;;
2022/05/03 07:40:06;;;;;;;6.00;4.07;;;;;;;;;;5068604;28;20365;-88
2022/05/03 07:42:32;;;;;;;11.57;6.15;;;;;;;;;;5077383;28;20029;-89
2022/05/03 07:44:58;;;;;;;10.88;4.47;;;;;;;;;;5053519;28;20059;-85
2022/05/03 07:47:23;;;;;;;7.72;3.92;;;;;;;;;;5047260;28;20278;-85
2022/05/03 07:49:49;;;;;;;8.95;4.30;;;;;;;;;;5059217;28;20035;-84
2022/05/03 07:52:17;;;;;;;6.50;3.45;;;;;;;;;;5089662;28;20024;-87
2022/05/03 07:54:43;;;;;;;5.20;3.78;;;;;;;;;;5070065;28;20126;-83
2022/05/03 07:57:09;;;;;;;7.05;3.30;;;;;;;;;;5051319;28;20041;-89
2022/05/03 07:59:34;;;;;;;5.97;3.42;;;;;;;;;;5062195;28;20501;-86
2022/05/03 08:02:06;;;;;;;5.50;3.10;;;;;;;;;;5023137;28;20600;-87
2022/05/03 08:04:31;;;;;;;4.88;3.47;;;;;;;;;;5039510;28;20041;-84
2022/05/03 08:07:05;;;;;;;6.80;5.22;;;;;;;;;;5019531;28;20108;-83
2022/05/03 08:09:36;;;;;;;6.10;3.92;;;;;;;;;;5044400;28;20665;-81
2022/05/03 08:12:03;;;;;;;6.00;3.85;;;;;;;;;;5046203;28;20032;-80
2022/05/03 08:14:32;;;;;;;10.35;5.53;;;;;;;;;;5034774;28;20370;-82
2022/05/03 08:16:59;;;;;;;7.35;4.10;;;;;;;;;;5053324;28;20048;-83
2022/05/03 08:19:25;;;;;;;7.90;3.90;;;;;;;;;;5057580;28;20028;-81
2022/05/03 08:21:56;;;;;;;8.02;4.40;;;;;;;;;;5027509;28;20033;-77
2022/05/03 08:24:22;;;;;;;6.05;3.58;;;;;;;;;;5027390;28;20025;-83
2022/05/03 08:26:47;;;;;;;8.52;5.10;;;;;;;;;;5033213;28;20104;-79
2022/05/03 08:29:13;;;;;;;6.70;3.80;;;;;;;;;;5071141;28;20521;-80
2022/05/03 08:31:40;;;;;;;6.05;4.05;;;;;;;;;;5041239;28;20036;-80
2022/05/03 08:34:05;;;;;;;9.23;4.00;;;;;;;;;;5057079;28;20036;-81
2022/05/03 08:36:31;;;;;;;4.65;3.63;;;;;;;;;;5035585;28;20021;-79
2022/05/03 08:44:25;;;;;;;4.70;3.20;;;;;;;;;;5060084;28;20434;-82
2022/05/03 08:51:49;;;;;;;4.45;3.30;;;;;;;;;;5033522;28;20053;-87
2022/05/03 08:54:15;;;;;;;4.88;2.97;;;;;;;;;;5013984;28;20104;-84
2022/05/03 08:56:54;;;;;;;7.47;3.13;;;;;;;;;;4998679;28;20037;-85
2022/05/03 08:59:20;;;;;;;6.43;3.28;;;;;;;;;;5018112;28;20029;-80
2022/05/03 09:05:11;;;;;;;3.45;2.88;;;;;;;;;;5083075;23;20059;-80
2022/05/03 09:07:37;;;;;;;3.55;3.10;;;;;;;;;;5060552;28;20051;-87
2022/05/03 09:10:19;;;;;;;6.07;4.07;;;;;;;;;;5097029;28;20020;-81
2022/05/03 09:12:45;;;;;;;8.25;3.90;;;;;;;;;;5075371;28;20400;-79
2022/05/03 09:15:11;;;;;;;5.15;4.57;;;;;;;;;;5091439;28;20079;-79
2022/05/03 09:17:44;;;;;;;5.32;3.03;;;;;;;;;;5096361;28;20024;-84
2022/05/03 09:26:18;;;;;;;3.78;2.42;;;;;;;;;;5093783;28;20088;-86
2022/05/03 09:28:54;;;;;;;4.80;2.83;;;;;;;;;;5094609;28;20453;-85
2022/05/03 09:31:30;;;;;;;4.57;2.40;;;;;;;;;;5064262;28;20453;-82
2022/05/03 09:33:57;;;;;;;2.58;2.33;;;;;;;;;;5096415;28;20031;-85
2022/05/03 09:36:23;;;;;;;3.60;2.97;;;;;;;;;;5089345;28;20040;-85
2022/05/03 09:38:54;;;;;;;10.85;6.88;;;;;;;;;;5060180;28;20025;-82
2022/05/03 09:41:46;;;;;;;8.30;4.15;;;;;;;;;;5091977;28;20024;-83
2022/05/03 09:44:13;;;;;;;7.72;3.40;;;;;;;;;;5074355;28;20461;-85
2022/05/03 09:47:06;;;;;;;7.40;4.00;;;;;;;;;;5091062;28;20138;-84
2022/05/03 09:49:37;;;;;;;5.55;3.80;;;;;;;;;;5085010;28;20103;-79
2022/05/03 09:52:03;;;;;;;4.30;3.22;;;;;;;;;;5057221;28;20039;-83
2022/05/03 09:54:55;;;;;;;4.38;3.10;;;;;;;;;;5065515;28;20032;-82
2022/05/03 09:57:24;;;;;;;5.07;2.70;;;;;;;;;;5069011;28;20024;-81
2022/05/03 09:59:55;;;;;;;4.07;2.85;;;;;;;;;;5046229;28;20028;-84
2022/05/03 10:02:24;;;;;;;8.43;2.88;;;;;;;;;;5071728;28;20027;-84
2022/05/03 10:04:51;;;;;;;7.78;5.53;;;;;;;;;;5075113;28;20052;-83
2022/05/03 10:07:16;;;;;;;7.10;5.25;;;;;;;;;;5074596;28;20472;-86
2022/05/03 10:09:42;;;;;;;5.72;3.28;;;;;;;;;;5056354;28;20039;-85
2022/05/03 10:12:12;;;;;;;4.88;3.50;;;;;;;;;;5056120;28;20358;-82
2022/05/03 10:14:38;;;;;;;4.82;3.35;;;;;;;;;;5076121;28;20089;-86
2022/05/03 10:23:01;;;;;;;9.90;5.38;;;;;;;;;;5077629;28;20078;-81
2022/05/03 10:25:42;;;;;;;15.85;9.00;;;;;;;;;;5058908;28;20059;-82
2022/05/03 10:28:07;;;;;;;5.13;3.72;;;;;;;;;;5096657;28;20032;-84
2022/05/03 10:30:34;;;;;;;5.38;3.97;;;;;;;;;;5094701;28;20425;-80
2022/05/03 10:33:23;;;;;;;8.07;4.72;;;;;;;;;;5081415;28;20350;-80
2022/05/03 10:35:49;;;;;;;11.10;6.93;;;;;;;;;;5094650;28;20051;-82
2022/05/03 10:38:37;;;;;;;6.00;4.72;;;;;;;;;;5059777;28;20053;-87
2022/05/03 10:41:05;;;;;;;6.97;4.15;;;;;;;;;;5081254;28;20024;-85
2022/05/03 10:43:33;;;;;;;5.45;3.97;;;;;;;;;;5053580;28;20026;-81
2022/05/03 10:46:08;;;;;;;3.42;3.13;;;;;;;;;;5057379;28;20107;-83
2022/05/03 10:48:34;;;;;;;4.60;3.70;;;;;;;;;;5068831;28;20045;-82
2022/05/03 10:51:06;;;;;;;6.85;3.50;;;;;;;;;;5057028;28;20472;-89
2022/05/03 10:53:35;;;;;;;4.63;3.47;;;;;;;;;;5062153;28;20473;-91
2022/05/03 10:56:18;;;;;;;7.88;3.58;;;;;;;;;;5058566;28;20032;-80
2022/05/03 10:59:02;;;;;;;7.55;4.57;;;;;;;;;;5077519;28;20028;-82
2022/05/03 11:01:28;;;;;;;13.32;6.68;;;;;;;;;;5077771;28;20044;-83
2022/05/03 11:03:59;;;;;;;6.50;3.72;;;;;;;;;;5059744;28;20049;-85
2022/05/03 11:06:28;;;;;;;6.90;4.90;;;;;;;;;;5078243;28;20109;-83
2022/05/03 11:11:55;;;;;;;9.27;4.28;;;;;;;;;;5079168;28;20024;-82
2022/05/03 11:14:24;;;;;;;9.30;4.88;;;;;;;;;;5058042;28;20043;-84
2022/05/03 11:17:05;;;;;;;11.60;6.68;;;;;;;;;;5075524;28;21093;-83
2022/05/03 11:19:35;;;;;;;12.00;6.13;;;;;;;;;;5096592;28;20051;-83
2022/05/03 11:22:00;;;;;;;7.32;3.58;;;;;;;;;;5096228;28;20024;-81
2022/05/03 11:24:30;;;;;;;6.15;3.30;;;;;;;;;;5077463;28;20028;-82
2022/05/03 11:27:03;;;;;;;4.47;3.28;;;;;;;;;;5062154;28;20027;-83
2022/05/03 11:29:31;;;;;;;7.00;3.10;;;;;;;;;;5095818;28;20122;-78
2022/05/03 11:31:58;;;;;;;10.98;3.10;;;;;;;;;;5098397;28;20087;-78
2022/05/03 11:34:24;;;;;;;23.17;14.60;;;;;;;;;;5095667;28;20032;-79
2022/05/03 11:36:52;;;;;;;9.35;5.75;;;;;;;;;;5096723;28;20078;-79
2022/05/03 11:39:18;;;;;;;3.28;2.63;;;;;;;;;;5093868;28;20032;-80
2022/05/03 11:41:44;;;;;;;9.73;6.30;;;;;;;;;;5092031;28;20020;-82
2022/05/03 11:44:10;;;;;;;10.65;5.72;;;;;;;;;;5113235;28;20031;-79
2022/05/03 11:46:37;;;;;;;6.45;3.55;;;;;;;;;;5094071;28;20032;-80
2022/05/03 11:49:04;;;;;;;5.28;3.58;;;;;;;;;;5081141;28;20024;-80
2022/05/03 11:57:16;;;;;;;4.53;2.50;;;;;;;;;;5093662;28;20058;-77
2022/05/03 11:59:45;;;;;;;10.82;6.00;;;;;;;;;;5061226;28;20035;-80
2022/05/03 12:02:22;;;;;;;7.53;3.67;;;;;;;;;;5077060;28;20032;-79
2022/05/03 12:05:06;;;;;;;18.50;9.98;;;;;;;;;;5060980;28;20100;-82
2022/05/03 12:07:40;;;;;;;7.45;4.75;;;;;;;;;;5095697;28;20412;-79
2022/05/03 12:10:25;;;;;;;5.22;4.13;;;;;;;;;;5094899;28;20024;-77
2022/05/03 12:13:17;;;;;;;8.52;5.30;;;;;;;;;;5099984;28;20024;-78
2022/05/03 12:15:47;;;;;;;6.63;3.25;;;;;;;;;;5078248;28;20028;-81
2022/05/03 12:18:15;;;;;;;4.32;2.95;;;;;;;;;;5078444;28;20092;-79
2022/05/03 12:20:47;;;;;;;7.07;4.00;;;;;;;;;;5095063;28;20028;-80
2022/05/03 12:23:13;;;;;;;6.07;4.07;;;;;;;;;;5095423;28;20028;-82
2022/05/03 12:25:41;;;;;;;2.95;2.53;;;;;;;;;;5094853;28;20028;-80
2022/05/03 12:28:07;;;;;;;8.63;4.47;;;;;;;;;;5079287;28;20031;-79
2022/05/03 12:30:32;;;;;;;5.65;3.33;;;;;;;;;;5094411;28;20121;-80
2022/05/03 12:33:08;;;;;;;3.85;3.20;;;;;;;;;;5097650;28;20366;-78
2022/05/03 12:35:35;;;;;;;13.05;7.43;;;;;;;;;;5078062;28;20055;-78
2022/05/03 12:38:12;;;;;;;20.17;11.88;;;;;;;;;;5075234;28;20419;-78
2022/05/03 12:40:46;;;;;;;5.97;4.00;;;;;;;;;;5093259;28;20035;-79
2022/05/03 12:43:16;;;;;;;4.70;2.97;;;;;;;;;;5093520;28;20032;-78
2022/05/03 12:45:41;;;;;;;6.63;3.63;;;;;;;;;;5095294;28;20036;-78
2022/05/03 12:48:07;;;;;;;5.28;3.33;;;;;;;;;;5060413;28;20055;-84
2022/05/03 12:50:33;;;;;;;3.83;3.00;;;;;;;;;;5076645;28;20034;-79
2022/05/03 12:52:58;;;;;;;6.68;3.88;;;;;;;;;;5078339;28;20482;-78
2022/05/03 12:55:24;;;;;;;5.50;3.72;;;;;;;;;;5096623;28;20063;-78
2022/05/03 13:00:36;;;;;;;2.40;2.03;;;;;;;;;;5094993;28;20035;-80
2022/05/03 13:03:03;;;;;;;4.25;2.70;;;;;;;;;;5079956;28;20089;-84
2022/05/03 13:05:29;;;;;;;2.70;1.90;;;;;;;;;;5098662;28;20044;-84
2022/05/03 13:07:54;;;;;;;2.33;2.00;;;;;;;;;;5096237;28;20047;-85
2022/05/03 13:10:20;;;;;;;5.00;1.90;;;;;;;;;;5096368;28;20093;-84
2022/05/03 13:12:45;;;;;;;2.00;1.80;;;;;;;;;;5098285;28;20023;-84
2022/05/03 13:15:11;;;;;;;3.83;2.10;;;;;;;;;;5098096;28;20090;-83
2022/05/03 13:17:36;;;;;;;7.80;5.70;;;;;;;;;;5095510;28;20031;-84
2022/05/03 13:20:04;;;;;;;38.08;22.92;;;;;;;;;;5068510;28;20059;-82
2022/05/03 13:22:31;;;;;;;4.32;2.90;;;;;;;;;;5077260;28;20464;-80
2022/05/03 13:24:57;;;;;;;7.65;3.08;;;;;;;;;;5094749;28;20078;-86
2022/05/03 13:27:23;;;;;;;2.83;2.58;;;;;;;;;;5076877;28;20123;-83
2022/05/03 13:29:48;;;;;;;6.80;3.15;;;;;;;;;;5094700;28;20111;-83
2022/05/03 13:32:14;;;;;;;5.18;2.83;;;;;;;;;;5101690;28;20012;-82
2022/05/03 13:34:39;;;;;;;3.03;2.70;;;;;;;;;;5079792;28;20063;-85
2022/05/03 13:42:33;;;;;;;4.35;2.78;;;;;;;;;;5095026;28;20471;-84
2022/05/03 13:44:58;;;;;;;9.98;3.22;;;;;;;;;;5060034;28;20032;-84
2022/05/03 13:47:24;;;;;;;4.32;3.55;;;;;;;;;;5076953;28;20507;-87
2022/05/03 13:49:50;;;;;;;6.60;4.03;;;;;;;;;;5094565;28;20074;-86
2022/05/03 13:52:15;;;;;;;3.55;2.40;;;;;;;;;;5064324;28;20016;-85
2022/05/03 13:54:41;;;;;;;4.88;2.47;;;;;;;;;;5062576;28;20059;-83
2022/05/03 13:57:07;;;;;;;3.25;2.22;;;;;;;;;;5076149;28;20111;-82
2022/05/03 13:59:33;;;;;;;5.53;3.05;;;;;;;;;;5059684;28;20099;-83
2022/05/03 14:01:59;;;;;;;4.28;2.70;;;;;;;;;;5094593;28;20085;-87
2022/05/03 14:04:24;;;;;;;6.72;3.10;;;;;;;;;;5076012;28;20436;-83
2022/05/03 14:06:50;;;;;;;5.95;2.88;;;;;;;;;;5093751;28;20449;-85
2022/05/03 14:09:15;;;;;;;3.28;2.70;;;;;;;;;;5097757;28;20164;-83
2022/05/03 14:11:41;;;;;;;3.05;2.38;;;;;;;;;;5095712;28;20373;-82
2022/05/03 14:14:06;;;;;;;5.65;4.20;;;;;;;;;;5098451;28;20361;-83
2022/05/03 14:16:32;;;;;;;7.78;3.38;;;;;;;;;;5094091;28;20040;-83
2022/05/03 14:19:00;;;;;;;3.63;2.28;;;;;;;;;;5094192;28;20064;-80
2022/05/03 14:21:26;;;;;;;4.72;2.47;;;;;;;;;;5059738;28;20437;-80
2022/05/03 14:23:51;;;;;;;3.47;2.40;;;;;;;;;;5094396;28;20032;-82
2022/05/03 14:26:17;;;;;;;2.70;2.08;;;;;;;;;;5075843;28;20418;-84
2022/05/03 14:28:44;;;;;;;4.55;2.53;;;;;;;;;;5075937;28;20078;-83
2022/05/03 14:31:11;;;;;;;7.40;2.17;;;;;;;;;;5097894;28;20028;-83
2022/05/03 14:33:36;;;;;;;5.15;2.10;;;;;;;;;;5083536;28;20032;-80
2022/05/03 14:36:02;;;;;;;4.53;2.40;;;;;;;;;;5080998;28;20478;-84
2022/05/03 14:38:27;;;;;;;2.67;2.10;;;;;;;;;;5080049;28;20043;-83
2022/05/03 14:40:53;;;;;;;2.72;2.00;;;;;;;;;;5097805;28;20052;-82
2022/05/03 14:43:20;;;;;;;5.30;2.17;;;;;;;;;;5063174;28;20024;-88
2022/05/03 14:45:47;;;;;;;3.13;1.80;;;;;;;;;;5079985;28;20059;-82
2022/05/03 14:48:13;;;;;;;1.83;1.70;;;;;;;;;;5097523;28;20035;-84
2022/05/03 14:50:39;;;;;;;4.00;2.50;;;;;;;;;;5097437;28;20122;-84
2022/05/03 14:53:05;;;;;;;3.97;2.25;;;;;;;;;;5080930;28;20031;-81
2022/05/03 14:55:30;;;;;;;2.63;1.95;;;;;;;;;;5083724;28;20050;-84
2022/05/03 15:03:24;;;;;;;2.22;2.03;;;;;;;;;;5097276;28;20034;-86
2022/05/03 15:05:49;;;;;;;2.15;1.92;;;;;;;;;;5097370;28;20449;-83
2022/05/03 15:08:15;;;;;;;5.28;2.20;;;;;;;;;;5097458;28;20093;-84
2022/05/03 15:10:40;;;;;;;3.58;2.17;;;;;;;;;;5079532;28;20068;-85
2022/05/03 15:13:07;;;;;;;3.40;2.67;;;;;;;;;;5079307;28;20028;-84
2022/05/03 15:15:32;;;;;;;4.03;2.13;;;;;;;;;;5086653;28;20388;-83
2022/05/03 15:17:58;;;;;;;7.00;2.88;;;;;;;;;;5063591;28;20115;-83
2022/05/03 15:20:28;;;;;;;7.20;4.43;;;;;;;;;;5045851;28;20415;-83
2022/05/03 15:25:37;;;;;;;7.70;4.32;;;;;;;;;;5067730;28;20472;-83
2022/05/03 15:28:03;;;;;;;6.97;3.58;;;;;;;;;;5079115;28;20040;-83
2022/05/03 15:30:29;;;;;;;6.38;3.13;;;;;;;;;;5079033;28;20113;-83
2022/05/03 15:32:54;;;;;;;5.03;3.17;;;;;;;;;;5097073;28;20046;-83
2022/05/03 15:35:20;;;;;;;4.13;3.35;;;;;;;;;;5083491;28;20035;-83
2022/05/03 15:37:45;;;;;;;5.35;3.33;;;;;;;;;;5062797;28;20089;-84
2022/05/03 15:40:13;;;;;;;3.83;2.83;;;;;;;;;;5079108;28;20038;-83
2022/05/03 15:42:38;;;;;;;5.00;2.72;;;;;;;;;;5062025;28;20028;-83
2022/05/03 15:45:04;;;;;;;4.35;2.65;;;;;;;;;;5062448;28;20405;-83
2022/05/03 15:47:31;;;;;;;4.07;2.42;;;;;;;;;;5096939;28;20028;-82
2022/05/03 15:49:59;;;;;;;4.28;2.28;;;;;;;;;;5078450;28;20028;-83
2022/05/03 15:52:25;;;;;;;4.18;2.38;;;;;;;;;;5078729;28;20076;-83
2022/05/03 15:54:50;;;;;;;3.60;2.40;;;;;;;;;;5100582;28;20039;-83
2022/05/03 15:57:17;;;;;;;6.22;2.75;;;;;;;;;;5065259;28;20020;-83
2022/05/03 15:59:42;;;;;;;3.60;2.50;;;;;;;;;;5078481;28;20435;-83
2022/05/03 16:02:08;;;;;;;2.70;2.50;;;;;;;;;;5078387;28;20039;-83
2022/05/03 16:04:34;;;;;;;3.13;2.75;;;;;;;;;;5094952;28;20059;-82
2022/05/03 16:07:00;;;;;;;3.95;2.45;;;;;;;;;;5061451;28;20040;-83